Time;durP1;ratioP1;P1;durP2;ratioP2;P2;SDS_P1;SDS_P2;PMS_P1;PMS_P2;Temp;Humidity;BMP_temperature;BMP_pressure;BME280_temperature;BME280_humidity;BME280_pressure;Samples;Min_cycle;Max_cycle;Signal;HPM_P1;HPM_P2
2022/05/15 00:01:26;;;;;;;40.38;22.60;;;10.80;99.90;;;;;;21122774;28;20032;-54
2022/05/15 00:11:29;;;;;;;37.55;25.02;;;10.90;99.90;;;;;;21136333;28;20043;-53
2022/05/15 00:21:32;;;;;;;44.10;26.50;;;10.80;99.90;;;;;;21136706;28;20100;-50
2022/05/15 00:31:36;;;;;;;47.00;29.38;;;10.80;99.90;;;;;;21152721;28;20028;-53
2022/05/15 00:41:39;;;;;;;43.08;24.52;;;10.90;99.90;;;;;;21149128;27;20528;-54
2022/05/15 00:51:59;;;;;;;51.90;30.02;;;10.80;99.90;;;;;;21162496;27;20069;-54
2022/05/15 01:02:02;;;;;;;46.83;26.07;;;10.70;99.90;;;;;;21188236;27;20031;-53
2022/05/15 01:12:06;;;;;;;51.85;29.23;;;10.70;99.90;;;;;;21162744;27;20096;-53
2022/05/15 01:22:14;;;;;;;47.90;28.85;;;10.60;99.90;;;;;;21116289;27;20085;-53
2022/05/15 01:32:19;;;;;;;63.47;35.92;;;10.50;99.90;;;;;;21122153;27;20096;-54
2022/05/15 01:42:22;;;;;;;43.55;25.85;;;10.50;99.90;;;;;;21155644;27;20136;-49
2022/05/15 01:52:26;;;;;;;60.88;36.92;;;10.50;99.90;;;;;;21207078;27;20484;-51
2022/05/15 02:02:30;;;;;;;50.63;28.17;;;10.50;99.90;;;;;;21201505;27;20652;-54
2022/05/15 02:12:33;;;;;;;61.80;35.85;;;10.50;99.90;;;;;;21186036;27;20039;-58
2022/05/15 02:22:35;;;;;;;51.47;27.42;;;10.40;99.90;;;;;;21124587;28;20095;-51
2022/05/15 02:32:39;;;;;;;59.00;32.17;;;10.40;99.90;;;;;;21200256;27;20040;-53
2022/05/15 02:42:43;;;;;;;50.80;29.75;;;10.80;99.90;;;;;;21170729;27;20112;-54
2022/05/15 02:52:45;;;;;;;43.63;25.48;;;10.90;99.90;;;;;;21166080;27;20444;-53
2022/05/15 03:02:48;;;;;;;46.97;29.02;;;10.80;99.90;;;;;;21191898;27;20047;-53
2022/05/15 03:12:51;;;;;;;55.63;32.40;;;10.60;99.90;;;;;;21185905;27;20039;-53
2022/05/15 03:22:55;;;;;;;53.00;32.65;;;10.50;99.90;;;;;;21172366;27;20039;-52
2022/05/15 03:32:58;;;;;;;48.92;28.30;;;10.60;99.90;;;;;;21160891;27;20499;-52
2022/05/15 03:43:01;;;;;;;56.35;31.50;;;10.50;99.90;;;;;;21176913;27;20119;-52
2022/05/15 03:53:04;;;;;;;51.70;29.20;;;10.40;99.90;;;;;;21167528;27;20043;-57
2022/05/15 04:03:06;;;;;;;48.67;26.63;;;10.40;99.90;;;;;;21195171;27;20092;-50
2022/05/15 04:13:10;;;;;;;54.53;29.63;;;10.50;99.90;;;;;;21169539;27;20081;-57
2022/05/15 04:23:12;;;;;;;46.83;27.08;;;10.50;99.90;;;;;;21176206;27;20040;-52
2022/05/15 04:33:16;;;;;;;50.40;26.50;;;10.60;99.90;;;;;;21153342;27;20039;-52
2022/05/15 04:43:19;;;;;;;45.85;26.20;;;11.00;99.90;;;;;;21153255;27;20120;-51
2022/05/15 04:53:22;;;;;;;38.92;21.65;;;11.70;99.90;;;;;;21184767;27;20039;-58
2022/05/15 05:03:24;;;;;;;34.72;21.60;;;12.10;99.90;;;;;;21192709;27;20402;-52
2022/05/15 05:13:27;;;;;;;34.20;20.45;;;12.20;99.90;;;;;;21178187;27;20417;-53
2022/05/15 05:23:29;;;;;;;30.08;18.63;;;12.20;99.90;;;;;;21174222;27;20130;-53
2022/05/15 05:33:33;;;;;;;34.70;20.23;;;12.30;99.90;;;;;;21178483;27;20092;-54
2022/05/15 05:43:36;;;;;;;31.35;17.17;;;12.40;99.90;;;;;;21156916;27;20055;-52
2022/05/15 05:53:39;;;;;;;25.83;16.73;;;12.60;99.90;;;;;;21147616;27;20040;-52
2022/05/15 06:14:02;;;;;;;19.02;12.15;;;13.40;99.90;;;;;;21161571;27;20060;-53
2022/05/15 06:24:05;;;;;;;10.75;7.72;;;14.10;99.90;;;;;;21151021;28;20065;-56
2022/05/15 06:34:08;;;;;;;11.15;7.45;;;18.50;99.90;;;;;;21136693;28;20051;-56
2022/05/15 06:44:11;;;;;;;11.93;7.65;;;21.50;99.90;;;;;;21192164;28;20047;-60
2022/05/15 06:54:13;;;;;;;9.75;7.03;;;22.80;99.90;;;;;;21166056;28;20100;-57
2022/05/15 07:04:16;;;;;;;9.50;7.15;;;24.00;99.90;;;;;;21150748;28;20088;-62
2022/05/15 07:14:19;;;;;;;8.57;6.93;;;;;;;;;;21129936;27;20036;-63
2022/05/15 07:24:22;;;;;;;7.88;6.68;;;25.20;98.90;;;;;;21183608;27;20023;-58
2022/05/15 07:34:25;;;;;;;8.33;7.30;;;25.90;99.30;;;;;;21195411;27;20039;-58
2022/05/15 07:44:28;;;;;;;8.95;8.05;;;26.30;97.70;;;;;;21185881;27;20112;-58
2022/05/15 07:54:33;;;;;;;11.77;9.07;;;26.50;96.40;;;;;;21171645;27;20035;-58
2022/05/15 08:08:00;;;;;;;;;;;26.00;94.30;;;;;;21176085;27;20092;-57
2022/05/15 08:14:58;;;;;;;9.90;8.15;;;25.30;92.70;;;;;;21221656;27;20376;-63
2022/05/15 08:25:01;;;;;;;8.15;6.72;;;24.80;97.60;;;;;;21173385;27;20040;-58
2022/05/15 08:35:05;;;;;;;10.30;7.47;;;25.20;97.20;;;;;;21169031;27;20544;-62
2022/05/15 08:45:14;;;;;;;10.68;7.10;;;25.20;96.90;;;;;;21189344;27;20091;-63
2022/05/15 08:55:24;;;;;;;9.40;7.65;;;25.10;95.90;;;;;;21214010;27;20067;-57
2022/05/15 09:05:29;;;;;;;11.05;8.05;;;25.00;99.10;;;;;;21200624;27;20035;-63
2022/05/15 09:15:33;;;;;;;10.48;7.85;;;25.00;96.80;;;;;;21180468;27;20084;-62
2022/05/15 09:25:38;;;;;;;8.60;7.32;;;24.00;98.30;;;;;;21189239;27;20057;-61
2022/05/15 09:35:42;;;;;;;14.67;7.87;;;22.60;99.90;;;;;;21165900;27;20381;-62
2022/05/15 09:46:12;;;;;;;8.43;6.47;;;22.10;99.90;;;;;;21203701;27;20116;-62
2022/05/15 09:56:21;;;;;;;10.20;7.10;;;22.30;99.90;;;;;;21127202;27;20043;-63
2022/05/15 10:06:31;;;;;;;9.70;8.50;;;24.30;99.90;;;;;;21213549;27;20072;-63
2022/05/15 10:16:49;;;;;;;11.55;8.45;;;23.60;98.70;;;;;;21213206;27;20039;-63
2022/05/15 10:27:04;;;;;;;13.27;9.23;;;22.60;99.90;;;;;;21204493;28;20715;-56
2022/05/15 10:37:49;;;;;;;10.95;8.48;;;23.70;99.90;;;;;;21140369;28;20108;-62
2022/05/15 10:48:16;;;;;;;10.35;8.07;;;23.70;99.90;;;;;;21146004;27;20574;-61
2022/05/15 10:58:39;;;;;;;13.68;10.35;;;23.00;99.90;;;;;;20769366;28;20077;-63
2022/05/15 11:09:11;;;;;;;11.98;9.20;;;22.30;99.90;;;;;;20774017;28;20041;-65
2022/05/15 11:19:25;;;;;;;14.98;9.93;;;24.00;99.90;;;;;;20750837;28;20546;-64
2022/05/15 11:29:32;;;;;;;10.60;9.30;;;26.50;99.90;;;;;;20858458;28;20039;-58
2022/05/15 11:39:59;;;;;;;11.77;9.32;;;26.90;96.90;;;;;;21192202;27;20092;-64
2022/05/15 11:50:10;;;;;;;15.15;9.95;;;25.50;99.20;;;;;;21071809;28;20155;-64
2022/05/15 12:00:25;;;;;;;11.43;8.30;;;25.80;99.90;;;;;;21071478;28;20096;-57
2022/05/15 12:10:34;;;;;;;9.18;7.72;;;26.40;98.70;;;;;;21070540;28;20040;-56
2022/05/15 12:20:48;;;;;;;9.32;7.80;;;26.30;97.00;;;;;;21069853;28;20032;-64
2022/05/15 12:30:52;;;;;;;10.80;7.28;;;25.60;96.80;;;;;;21069841;28;20489;-58
2022/05/15 12:41:01;;;;;;;10.65;9.27;;;25.30;99.90;;;;;;21067846;28;20070;-64
2022/05/15 12:51:10;;;;;;;9.70;8.50;;;25.90;97.70;;;;;;21066724;28;20554;-57
2022/05/15 13:01:15;;;;;;;12.05;8.25;;;25.40;98.00;;;;;;21078474;28;20028;-57
2022/05/15 13:11:29;;;;;;;11.80;9.20;;;25.30;96.30;;;;;;21070388;28;20141;-64
2022/05/15 13:21:39;;;;;;;13.48;7.85;;;24.80;94.50;;;;;;21082299;28;20271;-65
2022/05/15 13:31:43;;;;;;;9.82;8.38;;;25.20;98.40;;;;;;21073738;28;20093;-64
2022/05/15 13:52:26;;;;;;;11.13;8.82;;;25.50;97.00;;;;;;21172858;27;20043;-58
2022/05/15 14:02:31;;;;;;;11.57;9.40;;;26.20;95.70;;;;;;21189235;27;20035;-57
2022/05/15 14:12:52;;;;;;;11.00;8.73;;;26.90;95.60;;;;;;21146603;27;20505;-65
2022/05/15 14:22:55;;;;;;;9.68;8.65;;;27.40;93.60;;;;;;21175590;27;20031;-63
2022/05/15 14:33:01;;;;;;;13.40;9.68;;;25.10;94.20;;;;;;21198376;28;20069;-63
2022/05/15 14:43:05;;;;;;;10.50;8.53;;;23.40;96.70;;;;;;21155505;28;20047;-63
2022/05/15 14:53:07;;;;;;;12.02;8.63;;;22.00;97.80;;;;;;21164532;28;20421;-54
2022/05/15 15:03:10;;;;;;;10.48;8.82;;;21.00;99.90;;;;;;21135337;28;20088;-53
2022/05/15 15:13:15;;;;;;;9.45;8.27;;;20.50;99.90;;;;;;21145366;28;20035;-54
2022/05/15 15:23:18;;;;;;;13.65;9.73;;;20.40;99.90;;;;;;21147706;28;20104;-62
2022/05/15 15:33:21;;;;;;;13.05;9.20;;;20.10;99.90;;;;;;21149632;28;20408;-62
2022/05/15 15:43:32;;;;;;;17.63;10.63;;;19.90;99.90;;;;;;21218416;27;20570;-62
2022/05/15 15:53:37;;;;;;;15.38;9.35;;;19.60;99.90;;;;;;21193642;27;20027;-62
2022/05/15 16:03:40;;;;;;;14.15;10.18;;;19.50;99.90;;;;;;21198001;27;20066;-63
2022/05/15 16:13:42;;;;;;;12.70;10.05;;;19.20;99.90;;;;;;21196174;27;20065;-62
2022/05/15 16:23:45;;;;;;;17.55;9.52;;;19.00;99.90;;;;;;21204593;27;20545;-63
2022/05/15 16:33:47;;;;;;;15.75;8.93;;;19.10;99.90;;;;;;21195690;27;20083;-62
2022/05/15 16:43:51;;;;;;;13.07;9.55;;;19.00;99.90;;;;;;21155594;27;20047;-52
2022/05/15 16:53:55;;;;;;;13.02;9.80;;;19.10;99.90;;;;;;21173125;27;20040;-53
2022/05/15 17:03:59;;;;;;;15.75;10.45;;;18.70;99.90;;;;;;21153936;27;20500;-52
2022/05/15 17:14:01;;;;;;;19.73;10.35;;;18.50;99.90;;;;;;21142856;27;20039;-52
2022/05/15 17:24:05;;;;;;;14.30;10.48;;;18.20;99.90;;;;;;21205756;27;20043;-61
2022/05/15 17:34:13;;;;;;;14.50;11.32;;;17.90;99.90;;;;;;21145505;27;20369;-60
2022/05/15 17:44:16;;;;;;;17.87;11.00;;;17.60;99.90;;;;;;21153390;27;20055;-53
2022/05/15 17:54:20;;;;;;;23.33;13.07;;;17.30;99.90;;;;;;21165910;27;20036;-60
2022/05/15 18:04:23;;;;;;;18.02;13.07;;;17.00;99.90;;;;;;21155822;27;20081;-60
2022/05/15 18:14:28;;;;;;;18.10;11.30;;;16.70;99.90;;;;;;21169738;27;20427;-59
2022/05/15 18:24:31;;;;;;;17.60;12.40;;;16.40;99.90;;;;;;21147125;27;20061;-60
2022/05/15 18:34:34;;;;;;;23.63;15.60;;;16.10;99.90;;;;;;21191009;28;20039;-59
2022/05/15 18:44:37;;;;;;;19.10;14.02;;;16.00;99.90;;;;;;20967964;28;20052;-60
2022/05/15 18:54:55;;;;;;;20.55;13.38;;;15.80;99.90;;;;;;20955227;28;20095;-60
2022/05/15 19:05:00;;;;;;;17.83;11.90;;;15.70;99.90;;;;;;20980492;28;20072;-60
2022/05/15 19:15:07;;;;;;;21.65;12.93;;;15.60;99.90;;;;;;20972470;28;20149;-59
2022/05/15 19:25:11;;;;;;;21.38;14.35;;;15.40;99.90;;;;;;21017953;28;20101;-52
2022/05/15 19:35:14;;;;;;;19.55;13.95;;;15.10;99.90;;;;;;21074287;28;20492;-53
2022/05/15 19:45:18;;;;;;;24.70;16.33;;;14.90;99.90;;;;;;21109813;27;20085;-51
2022/05/15 19:55:20;;;;;;;19.35;12.63;;;14.70;99.90;;;;;;21155294;27;20500;-51
2022/05/15 20:15:46;;;;;;;20.42;12.85;;;14.50;99.90;;;;;;21185478;27;20552;-52
2022/05/15 20:25:49;;;;;;;24.15;14.10;;;14.40;99.90;;;;;;21156642;27;20061;-52
2022/05/15 20:35:52;;;;;;;21.75;13.55;;;14.10;99.90;;;;;;21172117;27;20035;-59
2022/05/15 20:45:56;;;;;;;27.45;17.73;;;14.00;99.90;;;;;;21176986;27;20479;-59
2022/05/15 20:55:59;;;;;;;20.73;13.15;;;13.90;99.90;;;;;;21177406;27;21073;-53
2022/05/15 21:06:12;;;;;;;26.27;16.75;;;14.10;99.90;;;;;;21179613;27;20095;-59
2022/05/15 21:16:16;;;;;;;24.30;15.15;;;14.00;99.90;;;;;;21199777;27;20383;-52
2022/05/15 21:26:20;;;;;;;26.40;17.02;;;14.00;99.90;;;;;;21169795;27;20096;-52
2022/05/15 21:36:22;;;;;;;28.92;19.13;;;13.90;99.90;;;;;;21152997;27;20039;-53
2022/05/15 21:46:25;;;;;;;24.48;14.73;;;13.70;99.90;;;;;;21158279;27;20051;-59
2022/05/15 21:56:28;;;;;;;26.83;18.05;;;13.70;99.90;;;;;;21145590;27;20039;-59
2022/05/15 22:06:30;;;;;;;25.77;16.58;;;13.70;99.90;;;;;;21171072;27;20080;-52
2022/05/15 22:16:33;;;;;;;33.45;21.02;;;13.70;99.90;;;;;;21180191;27;20118;-50
2022/05/15 22:26:39;;;;;;;36.83;23.80;;;13.60;99.90;;;;;;21153232;27;20035;-60
2022/05/15 22:36:41;;;;;;;38.47;19.92;;;13.50;99.90;;;;;;21148466;28;20043;-59
2022/05/15 22:46:44;;;;;;;44.45;25.02;;;13.40;99.90;;;;;;21173057;27;20039;-59
2022/05/15 22:56:47;;;;;;;40.42;23.70;;;13.20;99.90;;;;;;21148905;27;20043;-58
2022/05/15 23:17:10;;;;;;;41.60;26.65;;;12.70;99.90;;;;;;21173307;27;20096;-51
2022/05/15 23:27:14;;;;;;;49.40;29.30;;;12.50;99.90;;;;;;21204458;27;20080;-59
2022/05/15 23:37:18;;;;;;;52.83;33.25;;;12.40;99.90;;;;;;21239895;27;20038;-59
2022/05/15 23:47:21;;;;;;;43.67;25.98;;;12.40;99.90;;;;;;21183161;27;20127;-60
2022/05/15 23:57:26;;;;;;;43.67;26.13;;;12.30;99.90;;;;;;21204618;27;20548;-59
